Latest Coastal Weather Observations for Wadeye (Port Keats)

IDD60701

Issued at 3:31 am CST Thursday 19 January 2017 (issued every 10 minutes, with the page automatically refreshed every 10 minutes)

About coastal observations | Map of coastal stations | Coastal observations for NT | Marine services | Other Formats
Station Details ID: 014948 Name: PORT KEATS AIRPORT Lat: -14.25 Lon: 129.53 Height: 28.0 m
Data from the previous 72 hours. | See also: Recent months at Wadeye (Port Keats)
Date/Time
CST
Temp
°C
Wind Pressure Rain since
9am
mm
Weather Cloud Vis
km
Sea
Height
m
Swell
Dir  Spd
kts
Gust
kts
hPa Trend Height
m
Period
s
Dir
19/03:30am 25.0 NNE 5 5 1008.6 - - - - - - - - -
19/03:00am 25.3 ENE 3 5 1008.8 - 7.0 Rain - - - - - -
19/02:30am 25.4 CALM 0 0 1009.1 - - - - - - - - -
19/02:00am 25.3 CALM 0 0 1009.4 - - - - - - - - -
19/01:30am 25.3 CALM 0 0 1009.7 - - - - - - - - -
19/01:00am 25.2 NE 3 4 1010.0 - - - - - - - - -
19/12:30am 25.5 NE 5 6 1010.2 - - - - - - - - -
19/12:00am 25.6 E 4 5 1010.4 - - - - - - - - -
 
Date/Time
CST
Temp
°C
Wind Pressure Rain since
9am
mm
Weather Cloud Vis
km
Sea
Height
m
Swell
Dir  Spd
kts
Gust
kts
hPa Trend Height
m
Period
s
Dir
18/11:30pm 25.7 NE 5 6 1010.5 - - - - - - - - -
18/11:00pm 26.0 N 5 7 1010.6 - - - - - - - - -
18/10:30pm 26.0 WNW 7 13 1010.3 - - - - - - - - -
18/10:00pm 27.8 N 6 8 1010.2 - - - - - - - - -
18/09:30pm 27.4 NNW 7 9 1010.0 - - - - - - - - -
18/09:00pm 27.4 N 8 11 1009.8 - 0.0 - - - - - - -
18/08:30pm 27.7 N 12 17 1009.3 - - - - - - - - -
18/08:00pm 28.4 N 7 9 1009.1 - - - - - - - - -
18/07:30pm 28.5 N 7 11 1008.5 - - - - - - - - -
18/07:00pm 28.7 N 9 12 1008.1 - - - - - - - - -
18/06:30pm 29.0 NNW 7 9 1007.6 - - - - - - - - -
18/06:00pm 29.4 NNW 8 11 1007.0 - - - - - - - - -
18/05:30pm 29.5 NNW 8 13 1006.8 - - - - - - - - -
18/05:00pm 29.2 NW 7 11 1006.9 - - - - - - - - -
18/04:30pm 29.1 NW 6 9 1006.6 - - - - - - - - -
18/04:00pm 29.1 WNW 5 9 1006.6 - - - - - - - - -
18/03:30pm 29.5 WNW 7 11 1006.8 - - - - - - - - -
18/03:00pm 29.4 NW 8 12 1007.1 - - - - - - - - -
18/02:30pm 29.6 - - - 1007.2 - - - - - - - - -
18/02:00pm 30.5 WNW 8 12 - - - - - - - - - -
18/08:30am 28.0 NE 4 5 1009.2 - - - - - - - - -
18/08:00am 26.5 NE 3 4 1009.1 - - - - - - - - -
18/07:30am 25.5 CALM 0 0 1009.1 - - - - - - - - -
18/07:00am 25.2 CALM 0 0 1008.8 - - - - - - - - -
18/06:30am 25.3 ESE 1 4 1008.3 - - - - - - - - -
18/06:00am 25.1 NE 3 7 - - - Rain - - - - - -
18/05:30am 24.9 E 1 4 1007.7 - - - - - - - - -
18/05:00am 25.1 CALM 0 4 1007.4 - - - - - - - - -
18/04:30am 24.6 SE 4 5 1007.4 - - - - - - - - -
18/04:00am 24.5 S 3 5 1007.3 - - - - - - - - -
18/03:30am 25.2 NW 5 8 1007.4 - - - - - - - - -
18/03:00am 25.2 NW 12 21 1007.5 - 3.0 Rain - - - - - -
18/02:30am 25.9 CALM 0 0 1007.5 - - - - - - - - -
18/02:00am 25.8 CALM 0 0 1007.9 - - - - - - - - -
18/01:30am 25.8 CALM 0 0 1008.0 - - - - - - - - -
18/01:00am 25.6 E 3 4 1008.4 - - - - - - - - -
18/12:30am 25.5 SE 4 5 1008.9 - - - - - - - - -
18/12:00am 25.7 SE 3 5 1009.2 - - Recent precip. - - - - - -
 
Date/Time
CST
Temp
°C
Wind Pressure Rain since
9am
mm
Weather Cloud Vis
km
Sea
Height
m
Swell
Dir  Spd
kts
Gust
kts
hPa Trend Height
m
Period
s
Dir
17/11:30pm 25.6 N 2 4 1009.4 - - - - - - - - -
17/11:00pm 26.0 NW 9 17 1009.6 - - - - - - - - -
17/10:30pm 27.7 NNW 5 7 1009.3 - - - - - - - - -
17/10:00pm 27.8 NNW 7 9 1009.0 - - - - - - - - -
17/09:30pm 27.9 NNW 7 8 1008.7 - - - - - - - - -
17/09:00pm 27.6 NNW 5 8 1008.6 - - - - - - - - -
17/08:30pm 27.8 NNW 9 12 1008.3 - - - - - - - - -
17/08:00pm 28.4 NNW 8 11 1007.9 - - - - - - - - -
17/07:30pm 28.7 NNW 8 11 1007.3 - - - - - - - - -
17/07:00pm 29.2 NNW 9 11 1006.7 - - - - - - - - -
17/06:30pm 29.5 NNW 10 14 1006.6 - - - - - - - - -
17/06:00pm 29.4 NNW 11 17 1006.1 - - - - - - - - -
17/05:30pm 29.5 NW 10 16 1005.7 - - - - - - - - -
17/05:00pm 29.5 NNW 12 19 1005.2 - - - - - - - - -
17/04:30pm 29.5 NNW 10 14 1005.4 - - - - - - - - -
17/04:00pm 30.8 NW 10 15 1005.5 - - - - - - - - -
17/03:30pm 30.9 NNW 9 18 1005.8 - 0.0 - - - - - - -
17/03:00pm 31.2 NNW 9 13 1005.8 - 0.0 - - - - - - -
17/02:30pm 30.8 NW 9 13 1006.3 - 0.0 - - - - - - -
17/02:00pm 30.9 NW 8 13 1006.7 - 0.0 - - - - - - -
17/01:30pm 31.1 NNW 9 15 1007.1 - 0.0 - - - - - - -
17/01:00pm 31.3 NW 7 11 1007.2 - 0.0 - - - - - - -
17/12:30pm 30.6 NNW 7 9 1007.6 - 0.0 - - - - - - -
17/12:00pm 29.8 NW 5 8 1007.8 - 0.0 - - - - - - -
17/11:30am 29.7 N 5 7 1008.2 - 0.0 - - - - - - -
17/11:00am 29.1 N 6 8 1008.5 - 0.0 - - - - - - -
17/10:30am 28.2 N 7 9 1008.6 - 0.0 - - - - - - -
17/10:00am 27.6 NNE 4 5 1008.7 - 0.0 - - - - - - -
17/09:30am 26.6 NNE 3 4 1008.8 - 0.0 - - - - - - -
17/09:00am 25.8 CALM 0 1 1008.6 - 29.2 - - - - - - -
17/08:30am 25.6 CALM 0 0 1008.3 - 29.2 - - - - - - -
17/08:00am 24.6 CALM 0 0 1008.1 - 29.2 - - - - - - -
17/07:30am 23.5 CALM 0 3 1007.6 - 29.2 - - - - - - -
17/07:00am 23.3 CALM 0 0 1007.3 - 29.2 - - - - - - -
17/06:30am 23.0 CALM 0 0 1006.9 - 29.2 - - - - - - -
17/06:00am 22.9 CALM 0 0 - - 29.2 Recent precip. - - - - - -
17/05:30am 22.8 ESE 3 4 - - 29.2 - - - - - - -
17/05:00am 22.9 E 3 4 - - 28.8 - - - - - - -
17/04:30am 22.9 CALM 0 3 - - 28.8 - - - - - - -
17/04:00am 22.7 NNE 3 5 - - 28.8 - - - - - - -
17/03:30am 22.6 CALM 0 0 - - 28.8 - - - - - - -
17/03:00am 22.7 SSE 5 6 - - 28.6 Rain - - - - - -
17/02:30am 22.5 S 5 9 - - 27.4 - - - - - - -
17/02:00am 22.7 SW 7 13 - - 27.4 - - - - - - -
17/01:41am 23.5 WSW 9 22 - - 26.4 - - - - - - -
17/01:30am 24.9 WSW 2 4 - - 24.8 - - - - - - -
17/01:00am 25.2 CALM 0 0 - - 24.8 - - - - - - -
17/12:30am 25.1 WNW 5 8 - - 24.6 - - - - - - -
17/12:00am 25.3 NNE 2 3 - - 24.6 - - - - - - -
 
Date/Time
CST
Temp
°C
Wind Pressure Rain since
9am
mm
Weather Cloud Vis
km
Sea
Height
m
Swell
Dir  Spd
kts
Gust
kts
hPa Trend Height
m
Period
s
Dir
16/11:30pm 25.2 CALM 0 0 - - 24.6 - - - - - - -
16/11:00pm 25.2 CALM 0 0 - - 24.6 - - - - - - -
16/10:30pm 25.2 SE 1 3 - - 24.6 - - - - - - -
16/10:00pm 25.3 SE 1 4 1007.5 - 24.6 - - - - - - -
16/09:30pm 25.5 SE 2 5 1007.4 - 24.6 - - - - - - -
16/09:00pm 25.3 CALM 0 0 1007.2 - 24.6 - - - - - - -
16/08:30pm 25.4 CALM 0 0 1006.9 - 24.6 - - - - - - -
16/08:00pm 25.5 CALM 0 0 1006.7 - 24.6 - - - - - - -
16/07:30pm 25.6 CALM 0 3 1006.6 - 24.6 - - - - - - -
16/07:00pm 25.7 N 4 5 1006.4 - 24.6 - - - - - - -
16/06:30pm 25.9 NNE 4 4 1006.1 - 24.6 - - - - - - -
16/06:00pm 25.7 N 5 7 1005.9 - 24.6 - - - - - - -
16/05:30pm 25.6 N 4 5 1005.8 - 24.6 - - - - - - -
16/05:00pm 25.4 NE 4 6 1005.8 - 24.6 - - - - - - -
16/04:30pm 25.1 ENE 5 7 1005.9 - 24.6 - - - - - - -
16/04:00pm 24.5 NE 6 7 1006.1 - 24.6 - - - - - - -
16/03:30pm 24.5 NE 4 6 1006.3 - 24.4 - - - - - - -
16/03:00pm 24.2 NE 4 5 1006.6 - 24.2 Recent precip. - - - - - -
16/02:30pm 24.1 NE 5 6 1006.8 - 23.6 - - - - - - -
16/02:00pm 24.2 E 1 4 1006.9 - 23.4 - - - - - - -
16/01:30pm 24.2 CALM 0 0 1007.5 - 22.4 - - - - - - -
16/01:00pm 24.2 ESE 5 7 1007.5 - 22.0 - - - - - - -
16/12:30pm 23.8 SSW 7 11 1007.7 - 18.2 - - - - - - -
16/12:00pm 23.8 S 9 17 1008.4 - 7.2 Rain - - - - - -
16/11:30am 27.8 WSW 8 17 1008.3 - 0.0 - - - - - - -
16/11:00am 29.4 W 9 14 1007.7 - 0.0 - - - - - - -
16/10:30am 29.5 W 9 13 1008.1 - 0.0 - - - - - - -
16/10:00am 29.5 W 8 16 1008.3 - 0.0 - - - - - - -
16/09:30am 29.4 W 6 10 1008.4 - 0.0 - - - - - - -
16/09:00am 29.3 W 7 11 1008.1 - 0.0 - - - - - - -
16/08:30am 29.0 W 6 9 1007.5 - 0.0 - - - - - - -
16/08:00am 28.6 WNW 4 7 1007.6 - 0.0 - - - - - - -
16/07:30am 28.3 W 5 7 1007.6 - 0.0 - - - - - - -
16/07:00am 28.3 W 5 8 1007.3 - 0.0 - - - - - - -
16/06:30am 28.1 W 5 7 1007.0 - 0.0 - - - - - - -
16/06:00am 28.2 W 6 10 - - 0.0 - - - - - - -
16/05:30am 28.1 W 5 8 - - 0.0 - - - - - - -
16/05:00am 28.1 WNW 5 8 - - 0.0 - - - - - - -
16/04:30am 28.0 W 5 8 - - 0.0 - - - - - - -
16/04:00am 28.2 W 5 8 1005.8 - 0.0 - - - - - - -

Other Formats:

Comma delimited format used in spreadsheet applications
http://www.bom.gov.au/fwo/IDD60701/IDD60701.95111.axf

JavaScript Object Notation format (JSON) in row-major order
http://www.bom.gov.au/fwo/IDD60701/IDD60701.95111.json